sensor_id;sensor_type;location;lat;lon;timestamp;P1;durP1;ratioP1;P2;durP2;ratioP2
22060;SDS011;11194;48.092;-1.382;2022-12-29T00:01:06;18.83;;;4.30;;
22060;SDS011;11194;48.092;-1.382;2022-12-29T00:03:32;11.63;;;3.85;;
22060;SDS011;11194;48.092;-1.382;2022-12-29T00:05:58;15.32;;;3.53;;
22060;SDS011;11194;48.092;-1.382;2022-12-29T00:08:25;12.60;;;3.78;;
22060;SDS011;11194;48.092;-1.382;2022-12-29T00:11:46;14.98;;;3.78;;
22060;SDS011;11194;48.092;-1.382;2022-12-29T00:13:53;20.17;;;4.45;;
22060;SDS011;11194;48.092;-1.382;2022-12-29T00:16:40;21.45;;;4.20;;
22060;SDS011;11194;48.092;-1.382;2022-12-29T00:19:06;20.58;;;3.72;;
22060;SDS011;11194;48.092;-1.382;2022-12-29T00:21:53;19.88;;;4.88;;
22060;SDS011;11194;48.092;-1.382;2022-12-29T00:24:37;16.10;;;3.90;;
22060;SDS011;11194;48.092;-1.382;2022-12-29T00:27:22;15.25;;;2.92;;
22060;SDS011;11194;48.092;-1.382;2022-12-29T00:30:11;15.18;;;3.47;;
22060;SDS011;11194;48.092;-1.382;2022-12-29T00:32:56;12.52;;;3.67;;
22060;SDS011;11194;48.092;-1.382;2022-12-29T00:35:43;13.65;;;3.50;;
22060;SDS011;11194;48.092;-1.382;2022-12-29T00:38:10;12.75;;;3.08;;
22060;SDS011;11194;48.092;-1.382;2022-12-29T00:40:55;13.80;;;3.25;;
22060;SDS011;11194;48.092;-1.382;2022-12-29T00:43:39;13.90;;;3.22;;
22060;SDS011;11194;48.092;-1.382;2022-12-29T00:46:24;16.67;;;3.88;;
22060;SDS011;11194;48.092;-1.382;2022-12-29T00:48:50;12.93;;;3.50;;
22060;SDS011;11194;48.092;-1.382;2022-12-29T00:51:35;16.17;;;3.60;;
22060;SDS011;11194;48.092;-1.382;2022-12-29T00:54:01;10.98;;;3.55;;
22060;SDS011;11194;48.092;-1.382;2022-12-29T00:56:27;15.07;;;3.20;;
22060;SDS011;11194;48.092;-1.382;2022-12-29T00:58:53;15.35;;;3.30;;
22060;SDS011;11194;48.092;-1.382;2022-12-29T01:01:19;14.65;;;3.47;;
22060;SDS011;11194;48.092;-1.382;2022-12-29T01:03:45;17.73;;;3.63;;
22060;SDS011;11194;48.092;-1.382;2022-12-29T01:06:14;19.77;;;3.58;;
22060;SDS011;11194;48.092;-1.382;2022-12-29T01:08:40;14.65;;;3.50;;
22060;SDS011;11194;48.092;-1.382;2022-12-29T01:11:08;18.90;;;3.40;;
22060;SDS011;11194;48.092;-1.382;2022-12-29T01:13:34;12.88;;;2.97;;
22060;SDS011;11194;48.092;-1.382;2022-12-29T01:16:02;19.55;;;3.75;;
22060;SDS011;11194;48.092;-1.382;2022-12-29T01:18:28;17.45;;;3.63;;
22060;SDS011;11194;48.092;-1.382;2022-12-29T01:21:01;14.32;;;3.05;;
22060;SDS011;11194;48.092;-1.382;2022-12-29T01:23:27;17.08;;;3.33;;
22060;SDS011;11194;48.092;-1.382;2022-12-29T01:25:54;14.60;;;3.58;;
22060;SDS011;11194;48.092;-1.382;2022-12-29T01:28:20;16.23;;;4.03;;
22060;SDS011;11194;48.092;-1.382;2022-12-29T01:30:46;15.80;;;3.70;;
22060;SDS011;11194;48.092;-1.382;2022-12-29T01:33:12;13.55;;;3.30;;
22060;SDS011;11194;48.092;-1.382;2022-12-29T01:35:38;21.17;;;3.67;;
22060;SDS011;11194;48.092;-1.382;2022-12-29T01:38:04;19.63;;;3.22;;
22060;SDS011;11194;48.092;-1.382;2022-12-29T01:40:31;21.55;;;3.72;;
22060;SDS011;11194;48.092;-1.382;2022-12-29T01:42:57;16.67;;;3.53;;
22060;SDS011;11194;48.092;-1.382;2022-12-29T01:45:23;16.35;;;3.83;;
22060;SDS011;11194;48.092;-1.382;2022-12-29T01:47:56;17.83;;;3.60;;
22060;SDS011;11194;48.092;-1.382;2022-12-29T01:50:28;14.68;;;3.63;;
22060;SDS011;11194;48.092;-1.382;2022-12-29T01:53:02;13.25;;;3.42;;
22060;SDS011;11194;48.092;-1.382;2022-12-29T01:55:31;13.07;;;3.17;;
22060;SDS011;11194;48.092;-1.382;2022-12-29T01:57:59;11.32;;;3.15;;
22060;SDS011;11194;48.092;-1.382;2022-12-29T02:00:26;13.43;;;2.95;;
22060;SDS011;11194;48.092;-1.382;2022-12-29T02:02:52;10.60;;;2.75;;
22060;SDS011;11194;48.092;-1.382;2022-12-29T02:07:51;12.13;;;2.22;;
22060;SDS011;11194;48.092;-1.382;2022-12-29T02:10:19;15.98;;;3.03;;
22060;SDS011;11194;48.092;-1.382;2022-12-29T02:12:46;12.38;;;2.63;;
22060;SDS011;11194;48.092;-1.382;2022-12-29T02:15:12;11.43;;;2.75;;
22060;SDS011;11194;48.092;-1.382;2022-12-29T02:20:25;10.52;;;2.60;;
22060;SDS011;11194;48.092;-1.382;2022-12-29T02:25:33;16.35;;;3.20;;
22060;SDS011;11194;48.092;-1.382;2022-12-29T02:28:08;16.55;;;3.20;;
22060;SDS011;11194;48.092;-1.382;2022-12-29T05:00:51;14.75;;;3.33;;
22060;SDS011;11194;48.092;-1.382;2022-12-29T05:03:17;17.55;;;4.05;;
22060;SDS011;11194;48.092;-1.382;2022-12-29T05:05:43;16.80;;;3.60;;
22060;SDS011;11194;48.092;-1.382;2022-12-29T05:08:09;21.05;;;3.70;;
22060;SDS011;11194;48.092;-1.382;2022-12-29T05:10:35;16.95;;;3.47;;
22060;SDS011;11194;48.092;-1.382;2022-12-29T05:13:01;13.60;;;3.45;;
22060;SDS011;11194;48.092;-1.382;2022-12-29T05:15:27;18.48;;;3.30;;
22060;SDS011;11194;48.092;-1.382;2022-12-29T05:17:53;14.45;;;3.13;;
22060;SDS011;11194;48.092;-1.382;2022-12-29T05:20:19;13.68;;;3.33;;
22060;SDS011;11194;48.092;-1.382;2022-12-29T05:22:46;16.13;;;3.65;;
22060;SDS011;11194;48.092;-1.382;2022-12-29T05:25:12;12.70;;;3.28;;
22060;SDS011;11194;48.092;-1.382;2022-12-29T05:27:38;10.40;;;2.95;;
22060;SDS011;11194;48.092;-1.382;2022-12-29T05:30:04;12.85;;;3.38;;
22060;SDS011;11194;48.092;-1.382;2022-12-29T05:32:30;13.80;;;3.85;;
22060;SDS011;11194;48.092;-1.382;2022-12-29T05:34:56;11.80;;;2.88;;
22060;SDS011;11194;48.092;-1.382;2022-12-29T05:37:22;16.40;;;3.22;;
22060;SDS011;11194;48.092;-1.382;2022-12-29T05:39:48;14.23;;;3.42;;
22060;SDS011;11194;48.092;-1.382;2022-12-29T05:42:14;14.98;;;2.97;;
22060;SDS011;11194;48.092;-1.382;2022-12-29T05:44:40;13.07;;;2.95;;
22060;SDS011;11194;48.092;-1.382;2022-12-29T05:47:07;17.92;;;3.35;;
22060;SDS011;11194;48.092;-1.382;2022-12-29T05:49:33;15.43;;;3.05;;
22060;SDS011;11194;48.092;-1.382;2022-12-29T05:51:59;12.75;;;3.33;;
22060;SDS011;11194;48.092;-1.382;2022-12-29T05:54:25;14.73;;;3.28;;
22060;SDS011;11194;48.092;-1.382;2022-12-29T05:56:51;15.50;;;3.55;;
22060;SDS011;11194;48.092;-1.382;2022-12-29T05:59:17;12.82;;;4.05;;
22060;SDS011;11194;48.092;-1.382;2022-12-29T06:01:43;17.80;;;3.63;;
22060;SDS011;11194;48.092;-1.382;2022-12-29T06:04:09;15.85;;;3.38;;
22060;SDS011;11194;48.092;-1.382;2022-12-29T06:06:36;11.52;;;3.22;;
22060;SDS011;11194;48.092;-1.382;2022-12-29T06:09:06;16.67;;;3.15;;
22060;SDS011;11194;48.092;-1.382;2022-12-29T06:11:32;15.82;;;3.15;;
22060;SDS011;11194;48.092;-1.382;2022-12-29T06:13:59;18.75;;;3.45;;
22060;SDS011;11194;48.092;-1.382;2022-12-29T06:16:25;17.35;;;3.92;;
22060;SDS011;11194;48.092;-1.382;2022-12-29T06:18:51;21.20;;;3.55;;
22060;SDS011;11194;48.092;-1.382;2022-12-29T06:21:17;16.60;;;3.50;;
22060;SDS011;11194;48.092;-1.382;2022-12-29T06:23:43;13.75;;;3.40;;
22060;SDS011;11194;48.092;-1.382;2022-12-29T06:26:09;11.52;;;2.80;;
22060;SDS011;11194;48.092;-1.382;2022-12-29T06:28:35;14.60;;;3.22;;
22060;SDS011;11194;48.092;-1.382;2022-12-29T06:31:01;16.80;;;4.10;;
22060;SDS011;11194;48.092;-1.382;2022-12-29T06:33:28;17.58;;;4.10;;
22060;SDS011;11194;48.092;-1.382;2022-12-29T06:35:54;19.83;;;4.65;;
22060;SDS011;11194;48.092;-1.382;2022-12-29T06:38:20;20.02;;;4.10;;
22060;SDS011;11194;48.092;-1.382;2022-12-29T06:40:46;20.23;;;3.35;;
22060;SDS011;11194;48.092;-1.382;2022-12-29T06:43:12;16.63;;;3.92;;
22060;SDS011;11194;48.092;-1.382;2022-12-29T06:45:38;23.20;;;4.10;;
22060;SDS011;11194;48.092;-1.382;2022-12-29T06:48:05;16.52;;;3.92;;
22060;SDS011;11194;48.092;-1.382;2022-12-29T06:50:31;17.35;;;3.53;;
22060;SDS011;11194;48.092;-1.382;2022-12-29T06:52:57;20.80;;;4.07;;
22060;SDS011;11194;48.092;-1.382;2022-12-29T06:55:23;16.73;;;3.63;;
22060;SDS011;11194;48.092;-1.382;2022-12-29T06:57:49;17.45;;;3.95;;
22060;SDS011;11194;48.092;-1.382;2022-12-29T07:00:15;16.65;;;3.97;;
22060;SDS011;11194;48.092;-1.382;2022-12-29T07:02:42;13.73;;;3.55;;
22060;SDS011;11194;48.092;-1.382;2022-12-29T07:05:08;12.48;;;3.72;;
22060;SDS011;11194;48.092;-1.382;2022-12-29T07:07:35;12.38;;;2.90;;
22060;SDS011;11194;48.092;-1.382;2022-12-29T07:10:19;15.77;;;3.72;;
22060;SDS011;11194;48.092;-1.382;2022-12-29T07:12:45;13.80;;;3.45;;
22060;SDS011;11194;48.092;-1.382;2022-12-29T07:15:11;12.70;;;3.47;;
22060;SDS011;11194;48.092;-1.382;2022-12-29T07:17:37;15.98;;;3.30;;
22060;SDS011;11194;48.092;-1.382;2022-12-29T07:20:04;20.10;;;3.63;;
22060;SDS011;11194;48.092;-1.382;2022-12-29T07:22:30;19.70;;;3.88;;
22060;SDS011;11194;48.092;-1.382;2022-12-29T07:24:56;17.02;;;4.63;;
22060;SDS011;11194;48.092;-1.382;2022-12-29T07:27:22;16.23;;;3.17;;
22060;SDS011;11194;48.092;-1.382;2022-12-29T07:29:48;14.38;;;3.90;;
22060;SDS011;11194;48.092;-1.382;2022-12-29T07:32:14;20.30;;;3.85;;
22060;SDS011;11194;48.092;-1.382;2022-12-29T07:34:41;13.77;;;2.85;;
22060;SDS011;11194;48.092;-1.382;2022-12-29T07:37:07;19.10;;;4.05;;
22060;SDS011;11194;48.092;-1.382;2022-12-29T07:39:33;14.75;;;3.38;;
22060;SDS011;11194;48.092;-1.382;2022-12-29T07:41:59;29.08;;;5.07;;
22060;SDS011;11194;48.092;-1.382;2022-12-29T07:44:25;12.95;;;3.10;;
22060;SDS011;11194;48.092;-1.382;2022-12-29T07:46:51;17.55;;;3.33;;
22060;SDS011;11194;48.092;-1.382;2022-12-29T07:49:17;17.25;;;3.80;;
22060;SDS011;11194;48.092;-1.382;2022-12-29T07:51:43;19.92;;;3.72;;
22060;SDS011;11194;48.092;-1.382;2022-12-29T07:54:09;17.17;;;4.38;;
22060;SDS011;11194;48.092;-1.382;2022-12-29T07:56:37;18.67;;;4.00;;
22060;SDS011;11194;48.092;-1.382;2022-12-29T07:59:03;17.52;;;3.53;;
22060;SDS011;11194;48.092;-1.382;2022-12-29T08:01:29;18.50;;;3.95;;
22060;SDS011;11194;48.092;-1.382;2022-12-29T08:03:55;17.63;;;3.95;;
22060;SDS011;11194;48.092;-1.382;2022-12-29T08:06:21;14.10;;;3.45;;
22060;SDS011;11194;48.092;-1.382;2022-12-29T08:08:47;20.52;;;3.92;;
22060;SDS011;11194;48.092;-1.382;2022-12-29T08:11:13;14.90;;;3.17;;
22060;SDS011;11194;48.092;-1.382;2022-12-29T08:13:39;21.30;;;4.28;;
22060;SDS011;11194;48.092;-1.382;2022-12-29T08:16:05;18.73;;;3.25;;
22060;SDS011;11194;48.092;-1.382;2022-12-29T08:18:31;19.73;;;4.60;;
22060;SDS011;11194;48.092;-1.382;2022-12-29T08:21:01;18.55;;;4.38;;
22060;SDS011;11194;48.092;-1.382;2022-12-29T08:23:27;19.15;;;4.38;;
22060;SDS011;11194;48.092;-1.382;2022-12-29T08:25:57;16.77;;;3.53;;
22060;SDS011;11194;48.092;-1.382;2022-12-29T08:28:23;16.42;;;3.42;;
22060;SDS011;11194;48.092;-1.382;2022-12-29T08:30:50;17.35;;;3.88;;
22060;SDS011;11194;48.092;-1.382;2022-12-29T08:33:16;14.82;;;2.60;;
22060;SDS011;11194;48.092;-1.382;2022-12-29T08:35:42;17.30;;;3.50;;
22060;SDS011;11194;48.092;-1.382;2022-12-29T08:38:08;14.30;;;3.88;;
22060;SDS011;11194;48.092;-1.382;2022-12-29T08:40:36;15.60;;;4.07;;
22060;SDS011;11194;48.092;-1.382;2022-12-29T08:43:02;12.32;;;3.45;;
22060;SDS011;11194;48.092;-1.382;2022-12-29T08:45:28;18.55;;;4.30;;
22060;SDS011;11194;48.092;-1.382;2022-12-29T08:47:54;15.45;;;4.00;;
22060;SDS011;11194;48.092;-1.382;2022-12-29T08:50:20;18.90;;;4.03;;
22060;SDS011;11194;48.092;-1.382;2022-12-29T08:52:46;23.52;;;8.07;;
22060;SDS011;11194;48.092;-1.382;2022-12-29T08:55:12;16.75;;;4.60;;
22060;SDS011;11194;48.092;-1.382;2022-12-29T08:57:38;15.77;;;4.32;;
22060;SDS011;11194;48.092;-1.382;2022-12-29T09:00:05;18.70;;;3.53;;
22060;SDS011;11194;48.092;-1.382;2022-12-29T09:02:31;19.88;;;4.75;;
22060;SDS011;11194;48.092;-1.382;2022-12-29T09:04:57;18.13;;;5.82;;
22060;SDS011;11194;48.092;-1.382;2022-12-29T09:07:24;15.35;;;4.47;;
22060;SDS011;11194;48.092;-1.382;2022-12-29T09:09:50;20.52;;;5.32;;
22060;SDS011;11194;48.092;-1.382;2022-12-29T09:12:16;20.88;;;5.35;;
22060;SDS011;11194;48.092;-1.382;2022-12-29T09:14:43;17.17;;;4.28;;
22060;SDS011;11194;48.092;-1.382;2022-12-29T09:17:09;19.65;;;5.03;;
22060;SDS011;11194;48.092;-1.382;2022-12-29T09:19:54;25.50;;;7.35;;
22060;SDS011;11194;48.092;-1.382;2022-12-29T09:22:21;21.27;;;7.32;;
22060;SDS011;11194;48.092;-1.382;2022-12-29T09:24:47;20.02;;;5.63;;
22060;SDS011;11194;48.092;-1.382;2022-12-29T09:27:13;21.90;;;6.68;;
22060;SDS011;11194;48.092;-1.382;2022-12-29T09:29:39;16.15;;;5.60;;
22060;SDS011;11194;48.092;-1.382;2022-12-29T09:32:05;21.83;;;5.05;;
22060;SDS011;11194;48.092;-1.382;2022-12-29T09:34:32;20.30;;;6.25;;
22060;SDS011;11194;48.092;-1.382;2022-12-29T09:36:58;17.58;;;5.18;;
22060;SDS011;11194;48.092;-1.382;2022-12-29T09:39:24;21.52;;;5.85;;
22060;SDS011;11194;48.092;-1.382;2022-12-29T09:46:43;19.60;;;7.47;;
22060;SDS011;11194;48.092;-1.382;2022-12-29T09:51:38;32.33;;;9.23;;
22060;SDS011;11194;48.092;-1.382;2022-12-29T09:54:20;18.48;;;5.85;;
22060;SDS011;11194;48.092;-1.382;2022-12-29T09:56:49;21.45;;;8.90;;
22060;SDS011;11194;48.092;-1.382;2022-12-29T09:59:15;19.23;;;6.93;;
22060;SDS011;11194;48.092;-1.382;2022-12-29T10:04:12;20.77;;;6.43;;
22060;SDS011;11194;48.092;-1.382;2022-12-29T10:09:33;15.00;;;5.45;;
22060;SDS011;11194;48.092;-1.382;2022-12-29T10:14:41;13.48;;;4.75;;
22060;SDS011;11194;48.092;-1.382;2022-12-29T10:24:41;15.70;;;5.30;;
22060;SDS011;11194;48.092;-1.382;2022-12-29T10:27:12;15.10;;;6.22;;
22060;SDS011;11194;48.092;-1.382;2022-12-29T10:29:40;13.48;;;5.05;;
22060;SDS011;11194;48.092;-1.382;2022-12-29T10:34:47;15.95;;;5.32;;
22060;SDS011;11194;48.092;-1.382;2022-12-29T10:37:23;11.38;;;3.10;;
22060;SDS011;11194;48.092;-1.382;2022-12-29T10:39:51;13.05;;;4.85;;
22060;SDS011;11194;48.092;-1.382;2022-12-29T10:45:13;12.75;;;4.90;;
22060;SDS011;11194;48.092;-1.382;2022-12-29T10:47:45;10.38;;;4.63;;
22060;SDS011;11194;48.092;-1.382;2022-12-29T10:50:13;9.68;;;3.15;;
22060;SDS011;11194;48.092;-1.382;2022-12-29T10:52:39;8.43;;;2.35;;
22060;SDS011;11194;48.092;-1.382;2022-12-29T10:55:24;13.85;;;3.97;;
22060;SDS011;11194;48.092;-1.382;2022-12-29T10:57:53;11.18;;;3.05;;
22060;SDS011;11194;48.092;-1.382;2022-12-29T11:00:20;9.88;;;3.15;;
22060;SDS011;11194;48.092;-1.382;2022-12-29T11:05:37;8.30;;;3.05;;
22060;SDS011;11194;48.092;-1.382;2022-12-29T11:08:12;9.90;;;2.90;;
22060;SDS011;11194;48.092;-1.382;2022-12-29T11:10:41;8.63;;;3.22;;
22060;SDS011;11194;48.092;-1.382;2022-12-29T11:20:45;13.60;;;4.28;;
22060;SDS011;11194;48.092;-1.382;2022-12-29T11:23:29;7.88;;;2.55;;
22060;SDS011;11194;48.092;-1.382;2022-12-29T11:28:41;8.43;;;2.92;;
22060;SDS011;11194;48.092;-1.382;2022-12-29T11:31:08;11.65;;;2.88;;
22060;SDS011;11194;48.092;-1.382;2022-12-29T11:33:35;11.63;;;3.17;;
22060;SDS011;11194;48.092;-1.382;2022-12-29T11:36:02;10.15;;;2.85;;
22060;SDS011;11194;48.092;-1.382;2022-12-29T11:38:39;8.95;;;2.65;;
22060;SDS011;11194;48.092;-1.382;2022-12-29T11:41:06;8.48;;;2.47;;
22060;SDS011;11194;48.092;-1.382;2022-12-29T11:43:40;10.02;;;2.75;;
22060;SDS011;11194;48.092;-1.382;2022-12-29T11:46:12;12.60;;;3.13;;
22060;SDS011;11194;48.092;-1.382;2022-12-29T11:48:40;10.55;;;2.78;;
22060;SDS011;11194;48.092;-1.382;2022-12-29T11:51:07;11.05;;;3.55;;
22060;SDS011;11194;48.092;-1.382;2022-12-29T11:53:46;8.65;;;3.35;;
22060;SDS011;11194;48.092;-1.382;2022-12-29T11:56:16;14.27;;;3.10;;
22060;SDS011;11194;48.092;-1.382;2022-12-29T11:58:44;13.52;;;3.10;;
22060;SDS011;11194;48.092;-1.382;2022-12-29T12:01:17;11.88;;;3.00;;
22060;SDS011;11194;48.092;-1.382;2022-12-29T12:03:53;10.50;;;3.50;;
22060;SDS011;11194;48.092;-1.382;2022-12-29T12:06:21;9.60;;;2.50;;
22060;SDS011;11194;48.092;-1.382;2022-12-29T12:08:56;10.85;;;3.90;;
22060;SDS011;11194;48.092;-1.382;2022-12-29T12:11:37;9.05;;;3.05;;
22060;SDS011;11194;48.092;-1.382;2022-12-29T12:14:27;14.90;;;3.95;;
22060;SDS011;11194;48.092;-1.382;2022-12-29T12:16:57;10.63;;;3.05;;
22060;SDS011;11194;48.092;-1.382;2022-12-29T12:21:56;7.93;;;2.83;;
22060;SDS011;11194;48.092;-1.382;2022-12-29T12:24:35;13.07;;;3.22;;
22060;SDS011;11194;48.092;-1.382;2022-12-29T12:27:04;11.18;;;3.42;;
22060;SDS011;11194;48.092;-1.382;2022-12-29T12:32:20;9.15;;;3.25;;
22060;SDS011;11194;48.092;-1.382;2022-12-29T12:34:48;8.27;;;2.85;;
22060;SDS011;11194;48.092;-1.382;2022-12-29T12:39:44;11.43;;;3.00;;
22060;SDS011;11194;48.092;-1.382;2022-12-29T12:47:30;10.93;;;3.00;;
22060;SDS011;11194;48.092;-1.382;2022-12-29T12:52:37;9.02;;;3.50;;
22060;SDS011;11194;48.092;-1.382;2022-12-29T12:55:18;12.85;;;3.15;;
22060;SDS011;11194;48.092;-1.382;2022-12-29T13:00:16;9.68;;;3.05;;
22060;SDS011;11194;48.092;-1.382;2022-12-29T13:02:55;9.57;;;3.13;;
22060;SDS011;11194;48.092;-1.382;2022-12-29T13:10:53;11.57;;;3.78;;
22060;SDS011;11194;48.092;-1.382;2022-12-29T13:18:56;11.90;;;3.45;;
22060;SDS011;11194;48.092;-1.382;2022-12-29T13:21:28;14.02;;;4.00;;
22060;SDS011;11194;48.092;-1.382;2022-12-29T13:24:02;12.40;;;3.30;;
22060;SDS011;11194;48.092;-1.382;2022-12-29T13:26:32;16.23;;;3.17;;
22060;SDS011;11194;48.092;-1.382;2022-12-29T13:32:09;11.90;;;4.05;;
22060;SDS011;11194;48.092;-1.382;2022-12-29T13:37:02;13.40;;;4.15;;
22060;SDS011;11194;48.092;-1.382;2022-12-29T13:41:59;12.80;;;3.67;;
22060;SDS011;11194;48.092;-1.382;2022-12-29T13:44:28;14.25;;;3.40;;
22060;SDS011;11194;48.092;-1.382;2022-12-29T13:46:56;15.30;;;5.50;;
22060;SDS011;11194;48.092;-1.382;2022-12-29T13:49:23;12.50;;;3.30;;
22060;SDS011;11194;48.092;-1.382;2022-12-29T13:51:50;15.57;;;2.90;;
22060;SDS011;11194;48.092;-1.382;2022-12-29T13:54:22;10.43;;;2.33;;
22060;SDS011;11194;48.092;-1.382;2022-12-29T14:04:56;6.53;;;2.08;;
22060;SDS011;11194;48.092;-1.382;2022-12-29T14:07:22;4.90;;;2.58;;
22060;SDS011;11194;48.092;-1.382;2022-12-29T14:09:50;3.83;;;1.50;;
22060;SDS011;11194;48.092;-1.382;2022-12-29T14:14:48;7.30;;;1.27;;
22060;SDS011;11194;48.092;-1.382;2022-12-29T14:17:16;2.90;;;0.85;;
22060;SDS011;11194;48.092;-1.382;2022-12-29T14:19:44;3.05;;;0.85;;
22060;SDS011;11194;48.092;-1.382;2022-12-29T14:22:11;3.28;;;1.00;;
22060;SDS011;11194;48.092;-1.382;2022-12-29T14:24:40;3.58;;;1.27;;
22060;SDS011;11194;48.092;-1.382;2022-12-29T14:32:38;4.05;;;1.25;;
22060;SDS011;11194;48.092;-1.382;2022-12-29T14:34:58;5.18;;;1.48;;
22060;SDS011;11194;48.092;-1.382;2022-12-29T14:37:28;5.55;;;1.40;;
22060;SDS011;11194;48.092;-1.382;2022-12-29T14:40:37;4.15;;;1.48;;
22060;SDS011;11194;48.092;-1.382;2022-12-29T14:42:47;8.82;;;1.85;;
22060;SDS011;11194;48.092;-1.382;2022-12-29T14:47:41;4.82;;;1.60;;
22060;SDS011;11194;48.092;-1.382;2022-12-29T14:52:53;5.63;;;1.80;;
22060;SDS011;11194;48.092;-1.382;2022-12-29T14:58:01;8.15;;;2.75;;
22060;SDS011;11194;48.092;-1.382;2022-12-29T15:00:32;5.05;;;2.00;;
22060;SDS011;11194;48.092;-1.382;2022-12-29T15:05:36;8.38;;;2.40;;
22060;SDS011;11194;48.092;-1.382;2022-12-29T15:08:04;7.28;;;2.35;;
22060;SDS011;11194;48.092;-1.382;2022-12-29T15:10:33;9.02;;;2.40;;
22060;SDS011;11194;48.092;-1.382;2022-12-29T15:13:09;9.23;;;2.30;;
22060;SDS011;11194;48.092;-1.382;2022-12-29T15:15:39;7.97;;;3.13;;
22060;SDS011;11194;48.092;-1.382;2022-12-29T15:18:23;7.40;;;2.70;;
22060;SDS011;11194;48.092;-1.382;2022-12-29T15:20:50;7.95;;;1.83;;
22060;SDS011;11194;48.092;-1.382;2022-12-29T15:23:19;12.55;;;3.20;;
22060;SDS011;11194;48.092;-1.382;2022-12-29T15:26:07;6.97;;;2.33;;
22060;SDS011;11194;48.092;-1.382;2022-12-29T15:28:39;12.55;;;4.75;;
22060;SDS011;11194;48.092;-1.382;2022-12-29T15:31:10;11.57;;;3.90;;
22060;SDS011;11194;48.092;-1.382;2022-12-29T15:33:41;16.55;;;5.60;;
22060;SDS011;11194;48.092;-1.382;2022-12-29T15:36:12;10.95;;;3.75;;
22060;SDS011;11194;48.092;-1.382;2022-12-29T15:38:38;8.63;;;3.72;;
22060;SDS011;11194;48.092;-1.382;2022-12-29T15:46:16;12.32;;;4.93;;
22060;SDS011;11194;48.092;-1.382;2022-12-29T15:48:42;8.70;;;3.72;;
22060;SDS011;11194;48.092;-1.382;2022-12-29T15:51:17;10.52;;;4.65;;
22060;SDS011;11194;48.092;-1.382;2022-12-29T15:53:46;10.10;;;4.00;;
22060;SDS011;11194;48.092;-1.382;2022-12-29T15:56:12;8.43;;;3.67;;
22060;SDS011;11194;48.092;-1.382;2022-12-29T15:58:40;14.52;;;5.00;;
22060;SDS011;11194;48.092;-1.382;2022-12-29T16:01:16;11.52;;;5.40;;
22060;SDS011;11194;48.092;-1.382;2022-12-29T16:03:42;11.82;;;5.05;;
22060;SDS011;11194;48.092;-1.382;2022-12-29T16:06:09;10.85;;;5.03;;
22060;SDS011;11194;48.092;-1.382;2022-12-29T16:08:37;13.63;;;6.75;;
22060;SDS011;11194;48.092;-1.382;2022-12-29T16:11:17;15.55;;;6.40;;
22060;SDS011;11194;48.092;-1.382;2022-12-29T16:13:47;12.20;;;5.03;;
22060;SDS011;11194;48.092;-1.382;2022-12-29T16:16:16;18.33;;;5.45;;
22060;SDS011;11194;48.092;-1.382;2022-12-29T16:18:43;13.73;;;5.95;;
22060;SDS011;11194;48.092;-1.382;2022-12-29T16:21:28;11.45;;;6.28;;
22060;SDS011;11194;48.092;-1.382;2022-12-29T16:23:57;12.00;;;6.07;;
22060;SDS011;11194;48.092;-1.382;2022-12-29T16:26:25;17.33;;;7.97;;
22060;SDS011;11194;48.092;-1.382;2022-12-29T16:28:55;18.17;;;7.40;;
22060;SDS011;11194;48.092;-1.382;2022-12-29T16:31:24;12.45;;;5.40;;
22060;SDS011;11194;48.092;-1.382;2022-12-29T16:33:54;12.20;;;4.72;;
22060;SDS011;11194;48.092;-1.382;2022-12-29T16:41:37;12.32;;;5.65;;
22060;SDS011;11194;48.092;-1.382;2022-12-29T16:44:15;7.38;;;3.22;;
22060;SDS011;11194;48.092;-1.382;2022-12-29T16:46:44;9.48;;;2.72;;
22060;SDS011;11194;48.092;-1.382;2022-12-29T16:49:16;7.95;;;3.35;;
22060;SDS011;11194;48.092;-1.382;2022-12-29T16:51:43;12.88;;;4.10;;
22060;SDS011;11194;48.092;-1.382;2022-12-29T16:57:41;17.85;;;5.40;;
22060;SDS011;11194;48.092;-1.382;2022-12-29T17:00:07;20.17;;;7.28;;
22060;SDS011;11194;48.092;-1.382;2022-12-29T17:02:39;17.55;;;6.65;;
22060;SDS011;11194;48.092;-1.382;2022-12-29T17:05:16;25.33;;;8.98;;
22060;SDS011;11194;48.092;-1.382;2022-12-29T17:07:43;18.92;;;8.85;;
22060;SDS011;11194;48.092;-1.382;2022-12-29T17:10:09;24.80;;;10.98;;
22060;SDS011;11194;48.092;-1.382;2022-12-29T17:12:35;17.13;;;11.00;;
22060;SDS011;11194;48.092;-1.382;2022-12-29T17:15:03;16.23;;;8.43;;
22060;SDS011;11194;48.092;-1.382;2022-12-29T17:17:44;17.80;;;8.65;;
22060;SDS011;11194;48.092;-1.382;2022-12-29T17:20:26;17.95;;;8.57;;
22060;SDS011;11194;48.092;-1.382;2022-12-29T17:22:54;12.23;;;6.18;;
22060;SDS011;11194;48.092;-1.382;2022-12-29T17:28:33;9.02;;;4.40;;
22060;SDS011;11194;48.092;-1.382;2022-12-29T17:31:03;10.60;;;4.90;;
22060;SDS011;11194;48.092;-1.382;2022-12-29T17:34:06;11.77;;;5.57;;
22060;SDS011;11194;48.092;-1.382;2022-12-29T17:36:36;13.85;;;7.72;;
22060;SDS011;11194;48.092;-1.382;2022-12-29T17:39:20;12.77;;;7.00;;
22060;SDS011;11194;48.092;-1.382;2022-12-29T17:41:46;11.65;;;4.43;;
22060;SDS011;11194;48.092;-1.382;2022-12-29T17:44:16;9.02;;;3.90;;
22060;SDS011;11194;48.092;-1.382;2022-12-29T17:46:43;11.43;;;6.95;;
22060;SDS011;11194;48.092;-1.382;2022-12-29T17:49:11;8.20;;;4.13;;
22060;SDS011;11194;48.092;-1.382;2022-12-29T17:51:37;10.88;;;4.90;;
22060;SDS011;11194;48.092;-1.382;2022-12-29T17:54:03;10.93;;;6.13;;
22060;SDS011;11194;48.092;-1.382;2022-12-29T17:56:30;9.90;;;5.65;;
22060;SDS011;11194;48.092;-1.382;2022-12-29T17:58:58;9.20;;;4.90;;
22060;SDS011;11194;48.092;-1.382;2022-12-29T18:01:24;10.05;;;5.75;;
22060;SDS011;11194;48.092;-1.382;2022-12-29T18:03:51;12.80;;;6.97;;
22060;SDS011;11194;48.092;-1.382;2022-12-29T18:06:17;12.02;;;5.85;;
22060;SDS011;11194;48.092;-1.382;2022-12-29T18:08:43;11.32;;;7.60;;
22060;SDS011;11194;48.092;-1.382;2022-12-29T18:11:43;13.25;;;6.90;;
22060;SDS011;11194;48.092;-1.382;2022-12-29T18:14:01;11.10;;;5.65;;
22060;SDS011;11194;48.092;-1.382;2022-12-29T18:16:27;10.18;;;5.28;;
22060;SDS011;11194;48.092;-1.382;2022-12-29T18:18:53;8.95;;;4.13;;
22060;SDS011;11194;48.092;-1.382;2022-12-29T18:21:20;9.93;;;5.93;;
22060;SDS011;11194;48.092;-1.382;2022-12-29T18:23:47;16.25;;;9.88;;
22060;SDS011;11194;48.092;-1.382;2022-12-29T18:26:15;9.57;;;6.93;;
22060;SDS011;11194;48.092;-1.382;2022-12-29T18:28:41;14.07;;;7.90;;
22060;SDS011;11194;48.092;-1.382;2022-12-29T18:31:18;12.05;;;7.80;;
22060;SDS011;11194;48.092;-1.382;2022-12-29T18:33:45;11.82;;;6.50;;
22060;SDS011;11194;48.092;-1.382;2022-12-29T18:36:12;9.15;;;5.32;;
22060;SDS011;11194;48.092;-1.382;2022-12-29T18:38:41;10.20;;;5.95;;
22060;SDS011;11194;48.092;-1.382;2022-12-29T18:41:12;13.88;;;6.07;;
22060;SDS011;11194;48.092;-1.382;2022-12-29T18:43:40;15.95;;;8.60;;
22060;SDS011;11194;48.092;-1.382;2022-12-29T18:46:06;16.67;;;7.35;;
22060;SDS011;11194;48.092;-1.382;2022-12-29T18:48:33;14.30;;;6.22;;
22060;SDS011;11194;48.092;-1.382;2022-12-29T18:50:59;9.05;;;4.50;;
22060;SDS011;11194;48.092;-1.382;2022-12-29T18:53:25;10.68;;;4.82;;
22060;SDS011;11194;48.092;-1.382;2022-12-29T18:55:51;10.57;;;5.80;;
22060;SDS011;11194;48.092;-1.382;2022-12-29T18:58:18;9.82;;;4.00;;
22060;SDS011;11194;48.092;-1.382;2022-12-29T19:00:44;11.52;;;4.60;;
22060;SDS011;11194;48.092;-1.382;2022-12-29T19:03:14;9.90;;;4.18;;
22060;SDS011;11194;48.092;-1.382;2022-12-29T19:05:41;11.77;;;4.50;;
22060;SDS011;11194;48.092;-1.382;2022-12-29T19:08:07;12.88;;;4.50;;
22060;SDS011;11194;48.092;-1.382;2022-12-29T19:10:34;10.13;;;4.18;;
22060;SDS011;11194;48.092;-1.382;2022-12-29T19:13:00;11.60;;;4.63;;
22060;SDS011;11194;48.092;-1.382;2022-12-29T19:15:28;8.45;;;4.22;;